createdAt,value
2022-10-03T00:01:36.591Z,84.36
2022-10-03T00:04:21.650Z,84.25
2022-10-03T00:07:33.827Z,83.97
2022-10-03T00:10:14.283Z,83.82
2022-10-03T00:13:05.732Z,83.54
2022-10-03T00:15:47.441Z,83.40
2022-10-03T00:18:41.912Z,83.89
2022-10-03T00:21:44.755Z,83.59
2022-10-03T00:24:31.587Z,83.57
2022-10-03T00:27:49.002Z,83.92
2022-10-03T00:30:24.660Z,84.04
2022-10-03T00:33:22.346Z,84.36
2022-10-03T00:36:07.178Z,84.28
2022-10-03T00:39:02.547Z,83.69
2022-10-03T00:41:38.237Z,84.19
2022-10-03T00:44:13.990Z,84.14
2022-10-03T00:46:49.745Z,83.90
2022-10-03T00:49:34.994Z,84.65
2022-10-03T00:52:04.607Z,84.55
2022-10-03T00:54:45.358Z,84.56
2022-10-03T00:57:34.047Z,83.99
2022-10-03T01:00:07.641Z,84.11
2022-10-03T01:02:47.742Z,84.26
2022-10-03T01:05:35.981Z,84.17
2022-10-03T01:08:48.818Z,83.98
2022-10-03T01:11:30.358Z,83.81
2022-10-03T01:14:09.891Z,84.10
2022-10-03T01:16:57.296Z,83.65
2022-10-03T01:20:00.175Z,84.30
2022-10-03T01:23:01.594Z,84.55
2022-10-03T01:25:47.131Z,84.63
2022-10-03T01:28:41.519Z,84.43
2022-10-03T01:31:13.897Z,84.18
2022-10-03T01:33:46.728Z,84.83
2022-10-03T01:36:25.334Z,84.98
2022-10-03T01:39:11.839Z,84.44
2022-10-03T01:42:12.291Z,84.40
2022-10-03T01:45:01.722Z,84.21
2022-10-03T01:47:51.602Z,84.21
2022-10-03T01:50:38.615Z,84.60
2022-10-03T01:53:18.983Z,84.12
2022-10-03T01:55:59.224Z,84.69
2022-10-03T01:58:36.388Z,84.29
2022-10-03T02:01:28.155Z,84.84
2022-10-03T02:04:04.409Z,84.48
2022-10-03T02:06:50.226Z,84.74
2022-10-03T02:09:28.386Z,84.13
2022-10-03T02:12:07.666Z,84.02
2022-10-03T02:14:46.992Z,84.39
2022-10-03T02:17:49.239Z,84.48
2022-10-03T02:20:29.331Z,83.84
2022-10-03T02:23:00.763Z,83.73
2022-10-03T02:25:36.173Z,83.51
2022-10-03T02:28:47.759Z,83.62
2022-10-03T02:31:48.074Z,83.71
2022-10-03T02:34:46.755Z,83.20
2022-10-03T02:37:37.151Z,83.72
2022-10-03T02:40:10.378Z,83.53
2022-10-03T02:42:59.573Z,83.85
2022-10-03T02:46:03.338Z,83.49
2022-10-03T02:49:04.400Z,83.46
2022-10-03T02:51:59.748Z,83.72
2022-10-03T02:54:44.409Z,83.61
2022-10-03T02:57:16.559Z,83.46
2022-10-03T03:00:07.711Z,83.18
2022-10-03T03:02:42.529Z,83.81
2022-10-03T03:05:22.645Z,83.77
2022-10-03T03:08:26.346Z,83.75
2022-10-03T03:11:12.495Z,83.90
2022-10-03T03:14:16.642Z,83.87
2022-10-03T03:16:55.874Z,83.85
2022-10-03T03:19:44.019Z,83.69
2022-10-03T03:22:32.974Z,83.56
2022-10-03T03:25:21.617Z,83.60
2022-10-03T03:28:07.745Z,83.81
2022-10-03T03:30:45.957Z,83.39
2022-10-03T03:33:33.515Z,83.34
2022-10-03T03:36:17.410Z,83.20
2022-10-03T03:38:53.886Z,83.21
2022-10-03T03:41:31.119Z,83.39
2022-10-03T03:44:12.599Z,83.01
2022-10-03T03:47:30.338Z,83.52
2022-10-03T03:50:15.017Z,82.92
2022-10-03T03:53:04.661Z,83.39
2022-10-03T03:56:04.351Z,83.22
2022-10-03T03:58:38.059Z,83.50
2022-10-03T04:01:16.731Z,83.04
2022-10-03T04:04:05.151Z,83.04
2022-10-03T04:06:56.603Z,83.43
2022-10-03T04:09:39.055Z,83.01
2022-10-03T04:12:09.498Z,83.00
2022-10-03T04:15:07.393Z,82.57
2022-10-03T04:18:25.320Z,82.69
2022-10-03T04:21:07.138Z,83.16
2022-10-03T04:24:22.082Z,82.66
2022-10-03T04:27:28.946Z,82.78
2022-10-03T04:30:16.705Z,83.30
2022-10-03T04:33:25.517Z,83.12
2022-10-03T04:36:27.513Z,83.37
2022-10-03T04:39:20.943Z,83.10
2022-10-03T04:42:06.273Z,82.70
2022-10-03T04:45:04.775Z,82.65
2022-10-03T04:47:56.153Z,82.56
2022-10-03T04:50:57.473Z,82.49
2022-10-03T04:53:33.980Z,82.37
2022-10-03T04:56:12.833Z,82.58
2022-10-03T04:58:48.910Z,82.84
2022-10-03T05:01:34.608Z,82.74
2022-10-03T05:04:12.602Z,82.23
2022-10-03T05:06:57.111Z,82.91
2022-10-03T05:09:38.777Z,82.74
2022-10-03T05:12:45.561Z,82.66
2022-10-03T05:15:14.969Z,82.98
2022-10-03T05:18:00.142Z,82.88
2022-10-03T05:20:47.195Z,82.69
2022-10-03T05:23:32.422Z,83.33
2022-10-03T05:26:43.684Z,82.71
2022-10-03T05:29:31.481Z,83.20
2022-10-03T05:32:10.958Z,82.91
2022-10-03T05:34:49.660Z,83.14
2022-10-03T05:37:43.400Z,83.23
2022-10-03T05:40:24.613Z,83.50
2022-10-03T05:42:51.380Z,82.93
2022-10-03T05:45:49.864Z,83.05
2022-10-03T05:48:38.042Z,83.15
2022-10-03T05:51:13.498Z,82.91
2022-10-03T05:54:37.360Z,83.22
2022-10-03T05:57:31.748Z,83.10
2022-10-03T06:00:26.273Z,83.34
2022-10-03T06:03:11.024Z,83.02
2022-10-03T06:05:46.667Z,82.90
2022-10-03T06:08:26.715Z,82.96
2022-10-03T06:11:02.080Z,83.59
2022-10-03T06:13:56.032Z,83.54
2022-10-03T06:16:31.709Z,83.87
2022-10-03T06:19:25.226Z,83.87
2022-10-03T06:22:29.865Z,84.03
2022-10-03T06:25:17.911Z,84.07
2022-10-03T06:28:11.003Z,84.14
2022-10-03T06:30:40.261Z,83.93
2022-10-03T06:33:28.050Z,84.62
2022-10-03T06:36:30.707Z,84.45
2022-10-03T06:39:23.839Z,83.99
2022-10-03T06:42:04.218Z,84.66
2022-10-03T06:44:56.589Z,84.70
2022-10-03T06:47:43.390Z,84.73
2022-10-03T06:50:38.680Z,84.41
2022-10-03T06:53:11.861Z,84.42
2022-10-03T06:56:07.967Z,84.52
2022-10-03T06:59:05.617Z,84.56
2022-10-03T07:01:53.939Z,84.65
2022-10-03T07:04:26.180Z,84.96
2022-10-03T07:07:30.513Z,84.84
2022-10-03T07:10:19.001Z,85.41
2022-10-03T07:12:52.570Z,85.35
2022-10-03T07:16:14.334Z,85.68
2022-10-03T07:19:04.489Z,85.63
2022-10-03T07:21:47.250Z,85.49
2022-10-03T07:24:32.034Z,85.48
2022-10-03T07:27:17.831Z,85.24
2022-10-03T07:30:16.857Z,85.48
2022-10-03T07:33:04.965Z,85.69
2022-10-03T07:36:03.600Z,85.54
2022-10-03T07:38:49.823Z,85.60
2022-10-03T07:41:22.163Z,85.50
2022-10-03T07:44:03.989Z,85.58
2022-10-03T07:46:54.812Z,85.33
2022-10-03T07:49:48.604Z,85.15
2022-10-03T07:52:32.563Z,85.23
2022-10-03T07:55:19.561Z,85.10
2022-10-03T07:57:48.678Z,85.33
2022-10-03T08:00:24.515Z,85.09
2022-10-03T08:03:15.913Z,84.97
2022-10-03T08:05:49.657Z,85.20
2022-10-03T08:08:34.609Z,84.98
2022-10-03T08:11:01.167Z,84.87
2022-10-03T08:14:01.279Z,84.90
2022-10-03T08:16:43.189Z,84.56
2022-10-03T08:19:19.192Z,84.67
2022-10-03T08:22:15.655Z,84.54
2022-10-03T08:25:09.090Z,84.76
2022-10-03T08:27:47.112Z,84.98
2022-10-03T08:30:21.437Z,84.75
2022-10-03T08:33:25.440Z,84.55
2022-10-03T08:36:13.979Z,84.64
2022-10-03T08:39:02.312Z,84.62
2022-10-03T08:41:52.659Z,84.82
2022-10-03T08:44:30.235Z,84.84
2022-10-03T08:47:02.413Z,84.87
2022-10-03T08:49:45.452Z,84.87
2022-10-03T08:52:32.986Z,84.72
2022-10-03T08:55:27.289Z,84.91
2022-10-03T08:58:25.683Z,84.62
2022-10-03T09:01:36.388Z,84.89
2022-10-03T09:04:37.065Z,84.71
2022-10-03T09:07:20.344Z,84.88
2022-10-03T09:10:07.670Z,84.85
2022-10-03T09:13:02.533Z,84.98
2022-10-03T09:16:07.828Z,84.85
2022-10-03T09:19:19.133Z,84.83
2022-10-03T09:21:48.634Z,85.10
2022-10-03T09:24:53.007Z,85.05
2022-10-03T09:27:32.333Z,84.74
2022-10-03T09:30:23.246Z,84.69
2022-10-03T09:33:14.469Z,84.73
2022-10-03T09:36:04.405Z,84.64
2022-10-03T09:39:02.626Z,84.44
2022-10-03T09:41:39.173Z,84.52
2022-10-03T09:44:18.014Z,84.23
2022-10-03T09:47:35.427Z,84.05
2022-10-03T09:50:28.724Z,84.20
2022-10-03T09:53:02.464Z,84.24
2022-10-03T09:55:52.171Z,83.88
2022-10-03T09:58:47.743Z,84.22
2022-10-03T10:01:26.178Z,84.21
2022-10-03T10:04:54.198Z,84.28
2022-10-03T10:07:49.229Z,84.22
2022-10-03T10:10:36.857Z,84.55
2022-10-03T10:13:12.403Z,84.47
2022-10-03T10:15:47.765Z,84.11
2022-10-03T10:18:17.424Z,83.98
2022-10-03T10:21:02.404Z,84.07
2022-10-03T10:23:38.190Z,84.09
2022-10-03T10:26:35.762Z,83.97
2022-10-03T10:29:17.546Z,84.32
2022-10-03T10:32:28.639Z,84.37
2022-10-03T10:35:10.234Z,84.05
2022-10-03T10:38:03.361Z,83.93
2022-10-03T10:40:48.240Z,83.76
2022-10-03T10:43:33.814Z,84.02
2022-10-03T10:46:18.744Z,84.04
2022-10-03T10:49:22.791Z,84.06
2022-10-03T10:52:19.195Z,83.83
2022-10-03T10:55:22.272Z,84.04
2022-10-03T10:58:11.803Z,83.76
2022-10-03T11:00:41.797Z,83.82
2022-10-03T11:03:33.384Z,83.67
2022-10-03T11:06:17.230Z,83.75
2022-10-03T11:09:11.762Z,83.47
2022-10-03T11:11:59.830Z,83.55
2022-10-03T11:15:19.861Z,83.42
2022-10-03T11:18:04.642Z,83.74
2022-10-03T11:21:10.389Z,83.74
2022-10-03T11:24:14.990Z,83.66
2022-10-03T11:27:03.468Z,83.83
2022-10-03T11:29:48.099Z,83.77
2022-10-03T11:32:45.192Z,83.64
2022-10-03T11:35:49.283Z,83.85
2022-10-03T11:38:24.701Z,83.66
2022-10-03T11:40:58.159Z,84.02
2022-10-03T11:43:53.044Z,83.79
2022-10-03T11:46:46.158Z,83.68
2022-10-03T11:49:40.813Z,83.74
2022-10-03T11:52:45.042Z,83.36
2022-10-03T11:55:39.766Z,83.52
2022-10-03T11:58:56.299Z,83.65
2022-10-03T12:01:53.993Z,83.48
2022-10-03T12:04:32.019Z,83.77
2022-10-03T12:07:24.864Z,83.75
2022-10-03T12:10:03.462Z,83.58
2022-10-03T12:12:55.046Z,83.67
2022-10-03T12:15:44.895Z,83.31
2022-10-03T12:18:41.011Z,83.70
2022-10-03T12:21:21.971Z,83.32
2022-10-03T12:24:20.757Z,83.20
2022-10-03T12:27:19.087Z,83.33
2022-10-03T12:29:58.786Z,83.33
2022-10-03T12:32:44.185Z,83.24
2022-10-03T12:35:41.639Z,83.33
2022-10-03T12:38:25.428Z,83.19
2022-10-03T12:41:07.442Z,83.29
2022-10-03T12:43:56.941Z,83.35
2022-10-03T12:46:43.760Z,83.52
2022-10-03T12:49:23.023Z,83.41
2022-10-03T12:51:53.167Z,83.60
2022-10-03T12:54:25.880Z,83.28
2022-10-03T12:57:39.130Z,83.53
2022-10-03T13:00:07.762Z,83.48
2022-10-03T13:02:41.151Z,83.78
2022-10-03T13:05:31.693Z,83.69
2022-10-03T13:08:06.897Z,83.47
2022-10-03T13:10:39.282Z,83.58
2022-10-03T13:13:33.692Z,83.52
2022-10-03T13:16:13.608Z,83.71
2022-10-03T13:19:06.602Z,83.74
2022-10-03T13:22:06.450Z,83.72
2022-10-03T13:24:50.490Z,83.46
2022-10-03T13:27:22.910Z,83.42
2022-10-03T13:30:25.125Z,83.47
2022-10-03T13:33:03.262Z,83.52
2022-10-03T13:35:58.323Z,83.27
2022-10-03T13:39:03.012Z,82.84
2022-10-03T13:42:16.006Z,82.82
2022-10-03T13:44:55.586Z,82.96
2022-10-03T13:47:38.992Z,82.77
2022-10-03T13:50:15.344Z,82.74
2022-10-03T13:52:57.982Z,82.39
2022-10-03T13:55:36.846Z,82.10
2022-10-03T13:58:32.713Z,82.05
2022-10-03T14:01:24.495Z,81.60
2022-10-03T14:04:25.871Z,81.91
2022-10-03T14:07:16.323Z,81.22
2022-10-03T14:10:13.076Z,81.32
2022-10-03T14:13:10.725Z,81.40
2022-10-03T14:15:58.381Z,81.87
2022-10-03T14:18:56.312Z,81.75
2022-10-03T14:21:47.919Z,81.65
2022-10-03T14:24:42.969Z,81.40
2022-10-03T14:27:37.058Z,81.62
2022-10-03T14:30:11.261Z,81.67
2022-10-03T14:32:54.224Z,81.21
2022-10-03T14:35:39.369Z,81.25
2022-10-03T14:38:20.371Z,81.00
2022-10-03T14:40:56.385Z,81.09
2022-10-03T14:43:30.525Z,80.92
2022-10-03T14:46:02.092Z,80.40
2022-10-03T14:48:36.500Z,80.51
2022-10-03T14:51:26.467Z,80.56
2022-10-03T14:54:05.302Z,80.20
2022-10-03T14:56:44.151Z,80.57
2022-10-03T14:59:21.561Z,80.29
2022-10-03T15:01:55.034Z,80.61
2022-10-03T15:04:30.027Z,80.54
2022-10-03T15:07:00.680Z,80.74
2022-10-03T15:09:40.104Z,80.68
2022-10-03T15:12:10.185Z,80.62
2022-10-03T15:14:43.070Z,80.46
2022-10-03T15:17:43.276Z,80.62
2022-10-03T15:20:12.529Z,80.66
2022-10-03T15:22:44.299Z,80.73
2022-10-03T15:25:30.843Z,80.65
2022-10-03T15:28:03.908Z,80.48
2022-10-03T15:30:39.338Z,80.63
2022-10-03T15:33:24.647Z,80.35
2022-10-03T15:35:59.410Z,80.63
2022-10-03T15:38:37.682Z,80.38
2022-10-03T15:41:18.914Z,80.32
2022-10-03T15:43:57.106Z,80.54
2022-10-03T15:46:54.917Z,80.59
2022-10-03T15:49:40.155Z,80.56
2022-10-03T15:52:18.519Z,80.57
2022-10-03T15:55:11.156Z,80.79
2022-10-03T15:57:44.861Z,80.89
2022-10-03T16:00:33.728Z,80.87
2022-10-03T16:03:24.234Z,81.12
2022-10-03T16:06:00.742Z,81.08
2022-10-03T16:08:31.167Z,81.22
2022-10-03T16:11:16.014Z,81.15
2022-10-03T16:13:47.838Z,81.43
2022-10-03T16:16:19.982Z,81.67
2022-10-03T16:18:52.087Z,81.62
2022-10-03T16:21:45.768Z,81.71
2022-10-03T16:24:40.538Z,81.90
2022-10-03T16:27:18.940Z,82.15
2022-10-03T16:29:57.969Z,82.24
2022-10-03T16:32:28.357Z,81.92
2022-10-03T16:35:01.134Z,82.25
2022-10-03T16:37:29.950Z,82.14
2022-10-03T16:40:05.887Z,82.51
2022-10-03T16:42:44.331Z,82.80
2022-10-03T16:45:41.648Z,82.77
2022-10-03T16:49:08.119Z,82.90
2022-10-03T16:51:43.060Z,83.01
2022-10-03T16:54:15.943Z,83.13
2022-10-03T16:56:48.090Z,83.07
2022-10-03T16:59:19.522Z,83.08
2022-10-03T17:01:51.620Z,83.23
2022-10-03T17:04:25.667Z,83.38
2022-10-03T17:06:57.270Z,83.53
2022-10-03T17:09:41.702Z,83.70
2022-10-03T17:12:17.558Z,83.37
2022-10-03T17:14:45.134Z,83.42
2022-10-03T17:17:33.219Z,83.70
2022-10-03T17:20:07.059Z,83.77
2022-10-03T17:22:47.495Z,83.86
2022-10-03T17:25:17.424Z,83.95
2022-10-03T17:27:50.886Z,83.71
2022-10-03T17:30:44.080Z,83.90
2022-10-03T17:33:28.626Z,83.99
2022-10-03T17:36:20.923Z,83.75
2022-10-03T17:39:02.392Z,84.08
2022-10-03T17:41:59.548Z,84.06
2022-10-03T17:44:33.917Z,84.12
2022-10-03T17:47:23.897Z,84.06
2022-10-03T17:50:06.672Z,84.57
2022-10-03T17:52:40.982Z,84.52
2022-10-03T17:55:16.619Z,84.15
2022-10-03T17:57:52.890Z,84.38
2022-10-03T18:00:55.749Z,84.80
2022-10-03T18:03:33.864Z,84.58
2022-10-03T18:06:25.846Z,85.01
2022-10-03T18:08:53.473Z,85.09
2022-10-03T18:11:23.945Z,84.58
2022-10-03T18:14:00.117Z,84.69
2022-10-03T18:16:37.502Z,84.96
2022-10-03T18:19:26.259Z,85.00
2022-10-03T18:22:21.112Z,85.10
2022-10-03T18:25:32.114Z,85.11
2022-10-03T18:28:13.424Z,85.12
2022-10-03T18:30:56.278Z,85.32
2022-10-03T18:33:46.639Z,84.96
2022-10-03T18:36:22.539Z,84.88
2022-10-03T18:38:52.613Z,84.66
2022-10-03T18:41:19.542Z,84.75
2022-10-03T18:43:58.752Z,84.88
2022-10-03T18:46:42.695Z,85.26
2022-10-03T18:49:33.411Z,84.98
2022-10-03T18:52:19.449Z,85.16
2022-10-03T18:55:15.056Z,84.76
2022-10-03T18:57:54.324Z,85.36
2022-10-03T19:00:26.667Z,85.06
2022-10-03T19:02:58.213Z,85.41
2022-10-03T19:05:46.210Z,85.08
2022-10-03T19:08:42.322Z,85.27
2022-10-03T19:11:17.786Z,85.26
2022-10-03T19:13:56.014Z,85.39
2022-10-03T19:16:40.082Z,84.98
2022-10-03T19:19:29.079Z,85.19
2022-10-03T19:22:01.071Z,85.19
2022-10-03T19:24:53.449Z,85.38
2022-10-03T19:27:24.005Z,85.18
2022-10-03T19:29:54.326Z,85.30
2022-10-03T19:32:48.655Z,84.96
2022-10-03T19:35:21.252Z,85.25
2022-10-03T19:37:51.936Z,85.18
2022-10-03T19:40:39.557Z,85.36
2022-10-03T19:43:18.083Z,85.42
2022-10-03T19:46:03.411Z,85.51
2022-10-03T19:48:33.466Z,85.54
2022-10-03T19:51:23.935Z,85.31
2022-10-03T19:53:54.725Z,85.35
2022-10-03T19:56:25.736Z,85.26
2022-10-03T19:59:04.787Z,85.17
2022-10-03T20:01:46.240Z,85.47
2022-10-03T20:04:16.793Z,85.87
2022-10-03T20:06:48.771Z,85.63
2022-10-03T20:09:27.508Z,85.37
2022-10-03T20:12:06.568Z,85.42
2022-10-03T20:14:40.675Z,85.50
2022-10-03T20:17:24.896Z,85.30
2022-10-03T20:20:04.072Z,85.25
2022-10-03T20:22:34.287Z,85.25
2022-10-03T20:25:08.651Z,85.55
2022-10-03T20:27:46.019Z,85.59
2022-10-03T20:30:33.683Z,85.18
2022-10-03T20:33:00.625Z,85.41
2022-10-03T20:35:31.066Z,85.54
2022-10-03T20:38:20.032Z,85.55
2022-10-03T20:40:56.944Z,85.63
2022-10-03T20:43:42.352Z,85.52
2022-10-03T20:46:47.679Z,85.46
2022-10-03T20:49:40.773Z,85.88
2022-10-03T20:52:16.137Z,85.28
2022-10-03T20:54:58.483Z,85.17
2022-10-03T20:57:47.971Z,85.46
2022-10-03T21:00:14.707Z,85.97
2022-10-03T21:02:59.426Z,86.03
2022-10-03T21:05:37.707Z,85.59
2022-10-03T21:08:41.372Z,85.95
2022-10-03T21:11:10.947Z,85.97
2022-10-03T21:13:54.843Z,85.81
2022-10-03T21:16:30.841Z,85.70
2022-10-03T21:19:11.874Z,86.00
2022-10-03T21:21:50.126Z,86.08
2022-10-03T21:24:58.486Z,86.46
2022-10-03T21:27:26.470Z,86.17
2022-10-03T21:30:31.244Z,86.56
2022-10-03T21:33:11.379Z,86.57
2022-10-03T21:35:41.716Z,86.35
2022-10-03T21:38:08.314Z,86.47
2022-10-03T21:40:56.225Z,86.84
2022-10-03T21:43:57.199Z,86.57
2022-10-03T21:46:23.885Z,86.45
2022-10-03T21:48:59.614Z,86.00
2022-10-03T21:52:00.650Z,86.38
2022-10-03T21:55:05.603Z,86.31
2022-10-03T21:57:52.703Z,85.73
2022-10-03T22:00:26.481Z,85.62
2022-10-03T22:03:26.982Z,86.00
2022-10-03T22:06:17.954Z,85.68
2022-10-03T22:08:49.683Z,85.91
2022-10-03T22:11:27.908Z,85.52
2022-10-03T22:14:09.253Z,85.75
2022-10-03T22:16:46.127Z,85.77
2022-10-03T22:19:32.530Z,85.70
2022-10-03T22:22:08.495Z,85.75
2022-10-03T22:24:46.326Z,85.94
2022-10-03T22:27:20.775Z,86.40
2022-10-03T22:30:12.476Z,85.44
2022-10-03T22:32:54.331Z,86.01
2022-10-03T22:35:40.726Z,86.12
2022-10-03T22:38:08.327Z,85.89
2022-10-03T22:40:42.213Z,86.11
2022-10-03T22:43:16.257Z,85.80
2022-10-03T22:45:47.072Z,85.93
2022-10-03T22:48:21.849Z,85.08
2022-10-03T22:50:48.907Z,85.85
2022-10-03T22:53:19.518Z,85.92
2022-10-03T22:55:51.257Z,86.11
2022-10-03T22:58:20.643Z,86.00
2022-10-03T23:00:53.254Z,85.68
2022-10-03T23:03:32.582Z,85.42
2022-10-03T23:06:41.012Z,85.58
2022-10-03T23:09:18.982Z,86.10
2022-10-03T23:11:52.479Z,85.60
2022-10-03T23:14:26.123Z,85.43
2022-10-03T23:16:59.539Z,85.70
2022-10-03T23:19:50.215Z,85.95
2022-10-03T23:22:25.055Z,85.21
2022-10-03T23:25:01.155Z,85.52
2022-10-03T23:27:56.093Z,86.05
2022-10-03T23:30:25.830Z,85.50
2022-10-03T23:32:56.382Z,85.87
2022-10-03T23:35:31.985Z,85.37
2022-10-03T23:38:03.282Z,85.77
2022-10-03T23:40:38.921Z,85.52
2022-10-03T23:43:30.029Z,85.35
2022-10-03T23:46:19.856Z,85.46
2022-10-03T23:48:59.345Z,85.76
2022-10-03T23:51:34.813Z,85.72
2022-10-03T23:54:08.415Z,85.45
2022-10-03T23:56:41.370Z,85.36
2022-10-03T23:59:16.099Z,85.68
